createdAt,value
2019-03-17T00:02:19.000Z,2.50
2019-03-17T00:04:47.366Z,2.00
2019-03-17T00:07:15.697Z,2.37
2019-03-17T00:09:44.006Z,2.33
2019-03-17T00:12:12.299Z,2.50
2019-03-17T00:14:40.864Z,2.00
2019-03-17T00:17:09.213Z,2.40
2019-03-17T00:19:37.444Z,2.70
2019-03-17T00:22:05.743Z,2.70
2019-03-17T00:24:34.040Z,2.62
2019-03-17T00:27:02.370Z,2.67
2019-03-17T00:29:30.685Z,2.20
2019-03-17T00:31:58.981Z,2.47
2019-03-17T00:34:27.282Z,2.20
2019-03-17T00:36:55.974Z,2.20
2019-03-17T00:39:24.259Z,2.30
2019-03-17T00:41:52.598Z,2.25
2019-03-17T00:44:21.194Z,2.30
2019-03-17T00:46:49.509Z,2.47
2019-03-17T00:49:17.771Z,2.27
2019-03-17T00:51:46.051Z,2.35
2019-03-17T00:54:14.375Z,2.85
2019-03-17T00:56:42.966Z,2.30
2019-03-17T00:59:11.304Z,2.80
2019-03-17T01:01:39.685Z,2.40
2019-03-17T01:04:08.003Z,2.25
2019-03-17T01:06:36.288Z,2.00
2019-03-17T01:09:05.534Z,2.37
2019-03-17T01:11:34.010Z,2.20
2019-03-17T01:14:02.301Z,2.10
2019-03-17T01:16:30.619Z,2.17
2019-03-17T01:18:58.864Z,2.10
2019-03-17T01:21:27.172Z,2.52
2019-03-17T01:23:55.713Z,1.80
2019-03-17T01:26:24.087Z,2.77
2019-03-17T01:28:52.369Z,2.27
2019-03-17T01:31:20.682Z,2.10
2019-03-17T01:33:48.960Z,2.10
2019-03-17T01:36:17.288Z,2.30
2019-03-17T01:38:45.955Z,1.90
2019-03-17T01:41:14.363Z,2.20
2019-03-17T01:43:42.679Z,2.30
2019-03-17T01:46:10.981Z,1.98
2019-03-17T01:48:39.297Z,2.40
2019-03-17T01:51:07.627Z,2.25
2019-03-17T01:53:35.923Z,2.50
2019-03-17T01:56:04.585Z,2.60
2019-03-17T01:58:32.884Z,2.17
2019-03-17T02:01:01.161Z,2.55
2019-03-17T02:03:29.461Z,2.50
2019-03-17T02:05:57.760Z,2.40
2019-03-17T02:08:26.369Z,2.30
2019-03-17T02:10:54.714Z,2.10
2019-03-17T02:13:23.031Z,2.40
2019-03-17T02:15:51.315Z,2.00
2019-03-17T02:18:19.613Z,2.37
2019-03-17T02:20:47.896Z,2.30
2019-03-17T02:23:16.195Z,2.10
2019-03-17T02:25:44.933Z,2.60
2019-03-17T02:28:13.243Z,2.77
2019-03-17T02:30:41.597Z,2.12
2019-03-17T02:33:09.905Z,2.40
2019-03-17T02:35:39.998Z,2.70
2019-03-17T02:38:08.214Z,2.90
2019-03-17T02:40:36.519Z,2.50
2019-03-17T02:43:04.803Z,2.70
2019-03-17T02:45:33.104Z,2.77
2019-03-17T02:48:01.782Z,2.30
2019-03-17T02:50:30.453Z,2.60
2019-03-17T02:52:59.166Z,2.60
2019-03-17T02:55:27.548Z,2.80
2019-03-17T02:57:55.824Z,2.50
2019-03-17T03:00:24.468Z,2.80
2019-03-17T03:02:53.073Z,2.50
2019-03-17T03:05:21.385Z,2.90
2019-03-17T03:07:49.691Z,2.80
2019-03-17T03:10:17.987Z,2.62
2019-03-17T03:12:46.305Z,2.90
2019-03-17T03:15:14.772Z,3.10
2019-03-17T03:17:43.075Z,3.25
2019-03-17T03:20:11.810Z,3.00
2019-03-17T03:22:40.117Z,2.72
2019-03-17T03:25:11.237Z,3.10
2019-03-17T03:27:39.944Z,3.00
2019-03-17T03:30:13.509Z,3.00
2019-03-17T03:32:41.900Z,3.15
2019-03-17T03:35:10.482Z,2.85
2019-03-17T03:37:38.807Z,3.20
2019-03-17T03:40:09.850Z,2.90
2019-03-17T03:42:38.168Z,2.83
2019-03-17T03:45:09.181Z,2.80
2019-03-17T03:47:37.528Z,3.60
2019-03-17T03:50:10.103Z,2.72
2019-03-17T03:52:38.718Z,2.70
2019-03-17T03:55:08.399Z,3.10
2019-03-17T03:57:36.686Z,2.60
2019-03-17T04:00:13.998Z,2.40
2019-03-17T04:02:42.305Z,2.72
2019-03-17T04:05:10.713Z,2.80
2019-03-17T04:07:39.001Z,3.10
2019-03-17T04:10:09.591Z,2.60
2019-03-17T04:12:37.882Z,3.20
2019-03-17T04:15:10.422Z,3.40
2019-03-17T04:17:38.728Z,3.58
2019-03-17T04:20:09.872Z,2.95
2019-03-17T04:22:38.236Z,3.50
2019-03-17T04:25:07.135Z,3.30
2019-03-17T04:27:35.441Z,3.10
2019-03-17T04:30:04.580Z,3.52
2019-03-17T04:32:32.900Z,3.17
2019-03-17T04:35:01.185Z,3.40
2019-03-17T04:37:29.510Z,3.20
2019-03-17T04:39:57.813Z,3.10
2019-03-17T04:42:28.088Z,2.90
2019-03-17T04:44:56.338Z,3.00
2019-03-17T04:47:24.898Z,2.80
2019-03-17T04:49:53.199Z,3.40
2019-03-17T04:52:21.505Z,3.12
2019-03-17T04:54:49.821Z,3.08
2019-03-17T04:57:18.140Z,3.33
2019-03-17T04:59:46.423Z,3.50
2019-03-17T05:02:14.845Z,3.37
2019-03-17T05:04:43.387Z,3.17
2019-03-17T05:07:11.775Z,3.30
2019-03-17T05:09:40.057Z,2.70
2019-03-17T05:12:08.376Z,2.95
2019-03-17T05:14:36.679Z,3.65
2019-03-17T05:17:05.047Z,2.77
2019-03-17T05:19:33.341Z,3.30
2019-03-17T05:22:01.902Z,2.85
2019-03-17T05:24:30.200Z,2.90
2019-03-17T05:26:58.516Z,3.10
2019-03-17T05:29:27.131Z,3.37
2019-03-17T05:31:55.436Z,3.15
2019-03-17T05:34:23.740Z,3.30
2019-03-17T05:37:05.048Z,3.87
2019-03-17T05:39:22.066Z,4.30
2019-03-17T05:41:50.365Z,4.37
2019-03-17T05:44:18.675Z,4.17
2019-03-17T05:46:46.968Z,4.10
2019-03-17T05:49:15.287Z,4.25
2019-03-17T05:51:43.583Z,3.80
2019-03-17T05:54:11.870Z,4.28
2019-03-17T05:56:40.182Z,4.33
2019-03-17T05:59:08.473Z,4.50
2019-03-17T06:01:36.800Z,17.80
2019-03-17T06:04:05.114Z,5.17
2019-03-17T06:06:33.385Z,5.85
2019-03-17T06:09:01.698Z,5.33
2019-03-17T06:11:29.991Z,5.35
2019-03-17T06:13:58.860Z,5.83
2019-03-17T06:16:27.454Z,5.95
2019-03-17T06:18:55.739Z,5.30
2019-03-17T06:21:24.048Z,5.65
2019-03-17T06:23:52.688Z,6.00
2019-03-17T06:26:21.344Z,4.28
2019-03-17T06:28:49.670Z,4.53
2019-03-17T06:31:18.229Z,4.83
2019-03-17T06:33:46.545Z,3.40
2019-03-17T06:36:15.090Z,4.03
2019-03-17T06:38:43.485Z,4.10
2019-03-17T06:41:11.772Z,3.72
2019-03-17T06:43:40.325Z,3.95
2019-03-17T06:46:08.610Z,3.72
2019-03-17T06:48:36.927Z,3.52
2019-03-17T06:51:05.329Z,3.50
2019-03-17T06:53:33.840Z,3.50
2019-03-17T06:56:02.116Z,3.60
2019-03-17T06:58:30.700Z,3.90
2019-03-17T07:00:58.981Z,3.08
2019-03-17T07:03:27.271Z,3.10
2019-03-17T07:05:55.569Z,3.10
2019-03-17T07:08:23.872Z,2.98
2019-03-17T07:10:53.366Z,3.70
2019-03-17T07:13:22.320Z,4.80
2019-03-17T07:15:50.648Z,4.10
2019-03-17T07:18:18.953Z,4.80
2019-03-17T07:20:47.267Z,3.50
2019-03-17T07:23:15.540Z,4.42
2019-03-17T07:25:43.949Z,3.50
2019-03-17T07:28:12.242Z,3.80
2019-03-17T07:30:40.559Z,3.45
2019-03-17T07:33:08.842Z,3.60
2019-03-17T07:35:37.404Z,3.10
2019-03-17T07:38:05.951Z,3.70
2019-03-17T07:40:34.311Z,2.83
2019-03-17T07:43:03.495Z,3.45
2019-03-17T07:45:32.357Z,3.30
2019-03-17T07:48:00.651Z,3.10
2019-03-17T07:50:28.930Z,3.70
2019-03-17T07:52:57.224Z,3.67
2019-03-17T07:55:25.513Z,3.20
2019-03-17T07:57:53.829Z,3.17
2019-03-17T08:00:31.849Z,2.42
2019-03-17T08:02:52.743Z,1.80
2019-03-17T08:05:21.041Z,1.60
2019-03-17T08:07:49.610Z,2.22
2019-03-17T08:10:18.192Z,1.90
2019-03-17T08:12:46.548Z,2.30
2019-03-17T08:15:15.324Z,2.17
2019-03-17T08:17:43.637Z,1.63
2019-03-17T08:20:12.468Z,4.30
2019-03-17T08:22:41.131Z,3.02
2019-03-17T08:25:11.083Z,4.28
2019-03-17T08:27:39.344Z,4.35
2019-03-17T08:30:17.821Z,2.67
2019-03-17T08:32:46.098Z,4.20
2019-03-17T08:35:14.406Z,4.03
2019-03-17T08:37:42.701Z,1.85
2019-03-17T08:40:13.043Z,1.60
2019-03-17T08:42:41.332Z,3.12
2019-03-17T08:45:11.576Z,2.17
2019-03-17T08:47:40.149Z,1.20
2019-03-17T08:50:13.097Z,1.25
2019-03-17T08:52:41.492Z,1.50
2019-03-17T08:55:10.499Z,1.40
2019-03-17T08:57:38.818Z,1.00
2019-03-17T09:00:18.483Z,1.30
2019-03-17T09:02:46.787Z,1.10
2019-03-17T09:05:15.088Z,1.02
2019-03-17T09:07:43.384Z,1.10
2019-03-17T09:10:17.775Z,1.10
2019-03-17T09:12:46.067Z,1.40
2019-03-17T09:15:14.662Z,1.30
2019-03-17T09:17:43.349Z,1.10
2019-03-17T09:20:14.187Z,1.65
2019-03-17T09:22:42.549Z,1.80
2019-03-17T09:25:11.495Z,2.80
2019-03-17T09:27:39.812Z,4.67
2019-03-17T09:30:11.279Z,3.05
2019-03-17T09:32:39.572Z,2.00
2019-03-17T09:35:09.303Z,1.80
2019-03-17T09:37:37.610Z,1.95
2019-03-17T09:40:09.379Z,2.27
2019-03-17T09:42:37.668Z,2.40
2019-03-17T09:45:11.128Z,2.00
2019-03-17T09:47:41.119Z,2.10
2019-03-17T09:50:14.093Z,2.00
2019-03-17T09:52:42.452Z,2.02
2019-03-17T09:55:10.859Z,2.00
2019-03-17T09:57:39.143Z,2.20
2019-03-17T10:00:15.560Z,2.45
2019-03-17T10:02:44.092Z,2.00
2019-03-17T10:05:12.733Z,2.15
2019-03-17T10:07:41.017Z,2.12
2019-03-17T10:10:17.759Z,2.10
2019-03-17T10:12:46.047Z,2.58
2019-03-17T10:15:15.794Z,2.65
2019-03-17T10:17:44.343Z,2.80
2019-03-17T10:20:20.054Z,3.20
2019-03-17T10:22:48.383Z,3.00
2019-03-17T10:25:16.965Z,2.58
2019-03-17T10:27:45.274Z,2.80
2019-03-17T10:30:16.847Z,2.77
2019-03-17T10:32:45.150Z,3.10
2019-03-17T10:35:13.461Z,3.10
2019-03-17T10:37:42.031Z,2.55
2019-03-17T10:40:15.951Z,3.47
2019-03-17T10:42:44.322Z,3.33
2019-03-17T10:45:13.270Z,3.50
2019-03-17T10:47:41.580Z,3.45
2019-03-17T10:50:19.680Z,3.45
2019-03-17T10:52:48.041Z,3.80
2019-03-17T10:55:16.565Z,5.05
2019-03-17T10:57:45.138Z,4.10
2019-03-17T11:00:15.583Z,4.33
2019-03-17T11:02:44.141Z,3.60
2019-03-17T11:05:12.773Z,4.20
2019-03-17T11:07:41.067Z,2.20
2019-03-17T11:10:10.813Z,1.82
2019-03-17T11:12:39.389Z,1.47
2019-03-17T11:15:14.027Z,1.65
2019-03-17T11:17:42.720Z,2.35
2019-03-17T11:20:12.372Z,3.10
2019-03-17T11:22:40.706Z,2.50
2019-03-17T11:25:10.743Z,4.35
2019-03-17T11:27:39.135Z,4.90
2019-03-17T11:30:14.918Z,3.40
2019-03-17T11:32:43.229Z,2.67
2019-03-17T11:35:11.519Z,3.35
2019-03-17T11:37:39.825Z,4.12
2019-03-17T11:40:19.042Z,2.85
2019-03-17T11:42:49.808Z,2.10
2019-03-17T11:45:18.660Z,1.50
2019-03-17T11:47:47.323Z,1.70
2019-03-17T11:50:20.379Z,2.10
2019-03-17T11:52:48.833Z,1.30
2019-03-17T11:55:17.210Z,1.60
2019-03-17T11:57:45.583Z,1.10
2019-03-17T12:00:22.946Z,1.17
2019-03-17T12:02:51.395Z,2.00
2019-03-17T12:05:19.732Z,2.10
2019-03-17T12:07:48.091Z,2.00
2019-03-17T12:10:23.648Z,2.05
2019-03-17T12:12:51.988Z,2.05
2019-03-17T12:15:31.515Z,3.10
2019-03-17T12:18:00.121Z,2.20
2019-03-17T12:20:28.462Z,2.30
2019-03-17T12:22:57.036Z,1.55
2019-03-17T12:25:25.347Z,1.20
2019-03-17T12:27:53.653Z,0.90
2019-03-17T12:30:25.609Z,0.90
2019-03-17T12:32:54.453Z,0.90
2019-03-17T12:35:22.975Z,0.80
2019-03-17T12:37:51.356Z,1.10
2019-03-17T12:40:19.810Z,1.32
2019-03-17T12:42:48.197Z,2.00
2019-03-17T12:45:16.647Z,1.20
2019-03-17T12:47:45.009Z,1.82
2019-03-17T12:50:17.615Z,1.20
2019-03-17T12:52:45.911Z,1.00
2019-03-17T12:55:14.370Z,0.90
2019-03-17T12:57:42.676Z,1.50
2019-03-17T13:00:19.609Z,1.45
2019-03-17T13:02:47.912Z,1.47
2019-03-17T13:05:16.198Z,1.20
2019-03-17T13:07:44.511Z,1.62
2019-03-17T13:10:16.400Z,1.50
2019-03-17T13:12:45.187Z,1.40
2019-03-17T13:15:13.664Z,1.80
2019-03-17T13:17:42.041Z,1.00
2019-03-17T13:20:18.143Z,1.05
2019-03-17T13:22:46.743Z,1.30
2019-03-17T13:25:15.088Z,0.90
2019-03-17T13:27:43.403Z,1.20
2019-03-17T13:30:13.793Z,1.00
2019-03-17T13:32:42.095Z,0.70
2019-03-17T13:35:10.752Z,1.00
2019-03-17T13:37:39.061Z,0.80
2019-03-17T13:40:10.377Z,0.90
2019-03-17T13:42:38.753Z,0.60
2019-03-17T13:45:10.049Z,1.00
2019-03-17T13:47:38.718Z,1.00
2019-03-17T13:50:10.112Z,0.90
2019-03-17T13:52:38.395Z,1.37
2019-03-17T13:55:06.781Z,2.47
2019-03-17T13:57:35.409Z,2.42
2019-03-17T14:00:05.219Z,1.90
2019-03-17T14:02:33.494Z,3.00
2019-03-17T14:05:01.806Z,1.90
2019-03-17T14:07:30.094Z,1.92
2019-03-17T14:09:58.410Z,0.70
2019-03-17T14:12:26.689Z,0.60
2019-03-17T14:14:55.027Z,0.50
2019-03-17T14:17:23.334Z,0.60
2019-03-17T14:19:51.608Z,1.10
2019-03-17T14:22:20.211Z,1.70
2019-03-17T14:24:48.505Z,1.70
2019-03-17T14:27:16.816Z,1.70
2019-03-17T14:29:45.128Z,1.70
2019-03-17T14:32:13.735Z,1.52
2019-03-17T14:34:42.030Z,1.50
2019-03-17T14:37:10.615Z,1.10
2019-03-17T14:39:39.196Z,1.90
2019-03-17T14:42:07.533Z,1.60
2019-03-17T14:44:36.083Z,1.05
2019-03-17T14:47:04.429Z,1.10
2019-03-17T14:49:32.727Z,1.10
2019-03-17T14:52:01.023Z,1.40
2019-03-17T14:54:29.318Z,1.07
2019-03-17T14:56:57.614Z,1.30
2019-03-17T14:59:26.316Z,1.10
2019-03-17T15:01:54.587Z,1.10
2019-03-17T15:04:22.897Z,1.00
2019-03-17T15:06:51.439Z,1.00
2019-03-17T15:09:19.740Z,1.15
2019-03-17T15:11:48.107Z,1.05
2019-03-17T15:14:16.420Z,1.17
2019-03-17T15:16:44.698Z,1.40
2019-03-17T15:19:13.020Z,1.30
2019-03-17T15:21:41.289Z,1.40
2019-03-17T15:24:09.585Z,1.85
2019-03-17T15:26:37.876Z,1.50
2019-03-17T15:29:06.182Z,2.10
2019-03-17T15:31:34.501Z,1.50
2019-03-17T15:34:02.798Z,1.55
2019-03-17T15:36:31.091Z,1.50
2019-03-17T15:38:59.379Z,1.63
2019-03-17T15:41:27.685Z,1.20
2019-03-17T15:43:56.024Z,1.30
2019-03-17T15:46:24.326Z,1.85
2019-03-17T15:48:52.618Z,1.70
2019-03-17T15:51:21.074Z,1.30
2019-03-17T15:53:49.392Z,0.80
2019-03-17T15:56:17.694Z,0.80
2019-03-17T15:58:45.989Z,1.00
2019-03-17T16:01:14.282Z,1.10
2019-03-17T16:03:42.663Z,1.10
2019-03-17T16:06:10.945Z,1.30
2019-03-17T16:08:39.259Z,0.90
2019-03-17T16:11:07.589Z,1.40
2019-03-17T16:13:35.889Z,1.40
2019-03-17T16:16:04.503Z,1.90
2019-03-17T16:18:32.809Z,1.30
2019-03-17T16:21:01.092Z,1.40
2019-03-17T16:23:29.398Z,1.40
2019-03-17T16:25:57.689Z,1.30
2019-03-17T16:28:25.999Z,1.50
2019-03-17T16:30:54.291Z,1.52
2019-03-17T16:33:22.584Z,1.40
2019-03-17T16:35:50.905Z,1.40
2019-03-17T16:38:19.191Z,1.47
2019-03-17T16:40:47.505Z,1.30
2019-03-17T16:43:15.794Z,1.72
2019-03-17T16:45:44.363Z,1.70
2019-03-17T16:48:12.742Z,1.50
2019-03-17T16:50:40.969Z,1.50
2019-03-17T16:53:09.245Z,1.50
2019-03-17T16:55:37.560Z,1.60
2019-03-17T16:58:06.117Z,2.10
2019-03-17T17:00:34.455Z,2.45
2019-03-17T17:03:02.746Z,1.40
2019-03-17T17:05:31.034Z,1.77
2019-03-17T17:07:59.333Z,3.00
2019-03-17T17:10:28.661Z,3.58
2019-03-17T17:12:56.967Z,5.80
2019-03-17T17:15:30.037Z,3.80
2019-03-17T17:17:58.350Z,3.20
2019-03-17T17:20:33.736Z,2.10
2019-03-17T17:23:02.100Z,1.50
2019-03-17T17:25:30.376Z,1.52
2019-03-17T17:27:58.694Z,1.30
2019-03-17T17:30:27.058Z,1.60
2019-03-17T17:32:55.337Z,1.42
2019-03-17T17:35:23.652Z,1.40
2019-03-17T17:37:51.945Z,1.50
2019-03-17T17:40:22.897Z,1.60
2019-03-17T17:42:51.261Z,2.10
2019-03-17T17:45:22.072Z,1.50
2019-03-17T17:47:50.420Z,1.62
2019-03-17T17:50:19.995Z,1.80
2019-03-17T17:52:48.275Z,2.20
2019-03-17T17:55:16.575Z,2.83
2019-03-17T17:57:44.869Z,2.67
2019-03-17T18:00:17.143Z,1.90
2019-03-17T18:02:45.437Z,2.08
2019-03-17T18:05:13.803Z,2.10
2019-03-17T18:07:42.167Z,1.65
2019-03-17T18:10:12.604Z,1.50
2019-03-17T18:12:41.192Z,2.00
2019-03-17T18:15:17.665Z,2.25
2019-03-17T18:17:45.986Z,2.40
2019-03-17T18:20:14.297Z,1.90
2019-03-17T18:22:42.692Z,1.90
2019-03-17T18:25:13.411Z,2.20
2019-03-17T18:27:41.728Z,2.00
2019-03-17T18:30:15.804Z,2.00
2019-03-17T18:32:44.350Z,1.60
2019-03-17T18:35:12.708Z,2.37
2019-03-17T18:37:41.192Z,3.35
2019-03-17T18:40:17.391Z,3.10
2019-03-17T18:42:45.756Z,2.50
2019-03-17T18:45:27.480Z,2.70
2019-03-17T18:47:57.565Z,2.00
2019-03-17T18:50:25.887Z,2.90
2019-03-17T18:52:54.200Z,2.70
2019-03-17T18:55:22.808Z,2.60
2019-03-17T18:57:51.131Z,2.10
2019-03-17T19:00:26.164Z,2.40
2019-03-17T19:02:54.461Z,4.65
2019-03-17T19:05:22.836Z,2.87
2019-03-17T19:07:51.089Z,2.80
2019-03-17T19:10:20.315Z,3.10
2019-03-17T19:12:48.620Z,3.63
2019-03-17T19:15:23.196Z,3.92
2019-03-17T19:17:51.512Z,4.08
2019-03-17T19:20:21.780Z,4.03
2019-03-17T19:22:50.450Z,5.15
2019-03-17T19:25:25.315Z,4.50
2019-03-17T19:27:53.641Z,7.47
2019-03-17T19:30:22.696Z,6.20
2019-03-17T19:32:51.210Z,3.40
2019-03-17T19:35:19.505Z,6.17
2019-03-17T19:37:47.851Z,2.70
2019-03-17T19:40:20.269Z,2.20
2019-03-17T19:42:57.902Z,2.50
2019-03-17T19:45:18.613Z,4.50
2019-03-17T19:47:46.924Z,2.60
2019-03-17T19:50:18.407Z,3.20
2019-03-17T19:52:46.724Z,2.50
2019-03-17T19:55:15.234Z,2.10
2019-03-17T19:57:43.545Z,1.90
2019-03-17T20:00:15.036Z,2.60
2019-03-17T20:02:46.828Z,2.35
2019-03-17T20:05:13.916Z,2.37
2019-03-17T20:07:42.213Z,2.67
2019-03-17T20:10:19.453Z,2.42
2019-03-17T20:12:47.779Z,2.55
2019-03-17T20:15:16.490Z,2.50
2019-03-17T20:17:44.804Z,2.70
2019-03-17T20:20:14.483Z,4.30
2019-03-17T20:22:43.043Z,3.00
2019-03-17T20:25:11.939Z,4.90
2019-03-17T20:27:40.233Z,4.10
2019-03-17T20:30:11.700Z,3.35
2019-03-17T20:32:40.020Z,3.62
2019-03-17T20:35:13.129Z,2.85
2019-03-17T20:37:41.534Z,3.08
2019-03-17T20:40:11.689Z,2.55
2019-03-17T20:42:40.080Z,2.90
2019-03-17T20:45:10.421Z,3.10
2019-03-17T20:47:38.736Z,2.72
2019-03-17T20:50:10.212Z,3.02
2019-03-17T20:52:38.523Z,3.20
2019-03-17T20:55:08.585Z,3.90
2019-03-17T20:57:36.896Z,3.90
2019-03-17T21:00:11.209Z,3.90
2019-03-17T21:02:39.501Z,3.83
2019-03-17T21:05:09.470Z,4.25
2019-03-17T21:07:37.765Z,3.45
2019-03-17T21:10:08.896Z,3.10
2019-03-17T21:12:37.215Z,2.55
2019-03-17T21:15:08.783Z,2.30
2019-03-17T21:17:37.108Z,1.97
2019-03-17T21:20:17.022Z,1.82
2019-03-17T21:22:45.349Z,2.30
2019-03-17T21:25:13.739Z,2.30
2019-03-17T21:27:42.039Z,2.20
2019-03-17T21:30:24.367Z,1.87
2019-03-17T21:32:52.673Z,1.80
2019-03-17T21:35:20.970Z,2.10
2019-03-17T21:37:49.296Z,2.30
2019-03-17T21:40:17.658Z,2.30
2019-03-17T21:42:45.984Z,2.20
2019-03-17T21:45:14.751Z,2.42
2019-03-17T21:47:43.165Z,2.50
2019-03-17T21:50:19.209Z,2.40
2019-03-17T21:52:47.514Z,2.20
2019-03-17T21:55:15.868Z,2.30
2019-03-17T21:57:44.250Z,2.47
2019-03-17T22:00:19.437Z,2.30
2019-03-17T22:02:47.819Z,2.10
2019-03-17T22:05:16.692Z,2.20
2019-03-17T22:07:50.029Z,2.10
2019-03-17T22:10:21.949Z,2.30
2019-03-17T22:12:50.298Z,2.47
2019-03-17T22:15:19.345Z,2.40
2019-03-17T22:17:48.026Z,2.30
2019-03-17T22:20:16.750Z,1.90
2019-03-17T22:22:45.066Z,2.02
2019-03-17T22:25:16.762Z,1.90
2019-03-17T22:27:45.347Z,1.90
2019-03-17T22:30:18.437Z,2.10
2019-03-17T22:32:46.728Z,2.20
2019-03-17T22:35:15.030Z,2.50
2019-03-17T22:37:43.411Z,2.10
2019-03-17T22:40:15.208Z,1.80
2019-03-17T22:42:43.671Z,2.23
2019-03-17T22:45:15.543Z,2.52
2019-03-17T22:47:43.830Z,2.30
2019-03-17T22:50:19.465Z,2.35
2019-03-17T22:52:47.933Z,2.50
2019-03-17T22:55:16.306Z,2.10
2019-03-17T22:57:44.664Z,2.10
2019-03-17T23:00:21.749Z,2.60
2019-03-17T23:02:50.051Z,2.20
2019-03-17T23:05:18.332Z,2.45
2019-03-17T23:07:46.647Z,2.40
2019-03-17T23:10:15.012Z,2.40
2019-03-17T23:12:43.546Z,2.62
2019-03-17T23:15:12.730Z,2.70
2019-03-17T23:17:41.012Z,2.60
2019-03-17T23:20:11.342Z,2.17
2019-03-17T23:22:39.646Z,2.10
2019-03-17T23:25:10.243Z,2.20
2019-03-17T23:27:38.887Z,2.00
2019-03-17T23:30:20.173Z,2.00
2019-03-17T23:32:49.449Z,2.25
2019-03-17T23:35:18.064Z,2.37
2019-03-17T23:37:46.355Z,1.82
2019-03-17T23:40:16.498Z,2.40
2019-03-17T23:42:44.800Z,2.50
2019-03-17T23:45:13.423Z,2.00
2019-03-17T23:47:41.851Z,1.95
2019-03-17T23:50:12.219Z,2.00
2019-03-17T23:52:40.546Z,2.17
2019-03-17T23:55:11.273Z,1.90
2019-03-17T23:57:39.572Z,1.90
